sensor_id;sensor_type;location;lat;lon;timestamp;P1;P2;P0
40947;PMS5003;49382;-25.924;28.194;2022-10-16T00:01:50;39;37;
40947;PMS5003;49382;-25.924;28.194;2022-10-16T00:04:15;37;36;
40947;PMS5003;49382;-25.924;28.194;2022-10-16T00:06:41;36;36;
40947;PMS5003;49382;-25.924;28.194;2022-10-16T00:09:06;41;41;
40947;PMS5003;49382;-25.924;28.194;2022-10-16T00:11:32;32;31;
40947;PMS5003;49382;-25.924;28.194;2022-10-16T00:13:57;35;35;
40947;PMS5003;49382;-25.924;28.194;2022-10-16T00:16:23;32;32;
40947;PMS5003;49382;-25.924;28.194;2022-10-16T00:18:48;35;34;
40947;PMS5003;49382;-25.924;28.194;2022-10-16T00:21:15;32;31;
40947;PMS5003;49382;-25.924;28.194;2022-10-16T00:23:39;30;30;
40947;PMS5003;49382;-25.924;28.194;2022-10-16T00:26:06;33;32;
40947;PMS5003;49382;-25.924;28.194;2022-10-16T00:28:31;29;29;
40947;PMS5003;49382;-25.924;28.194;2022-10-16T00:30:56;31;31;
40947;PMS5003;49382;-25.924;28.194;2022-10-16T00:33:22;31;31;
40947;PMS5003;49382;-25.924;28.194;2022-10-16T00:35:47;33;33;
40947;PMS5003;49382;-25.924;28.194;2022-10-16T00:38:13;29;29;
40947;PMS5003;49382;-25.924;28.194;2022-10-16T00:40:39;27;27;
40947;PMS5003;49382;-25.924;28.194;2022-10-16T00:43:07;29;29;
40947;PMS5003;49382;-25.924;28.194;2022-10-16T00:45:29;29;29;
40947;PMS5003;49382;-25.924;28.194;2022-10-16T00:47:55;33;32;
40947;PMS5003;49382;-25.924;28.194;2022-10-16T00:50:22;29;29;
40947;PMS5003;49382;-25.924;28.194;2022-10-16T00:52:46;31;29;
40947;PMS5003;49382;-25.924;28.194;2022-10-16T00:55:11;32;31;
40947;PMS5003;49382;-25.924;28.194;2022-10-16T00:57:36;36;36;
40947;PMS5003;49382;-25.924;28.194;2022-10-16T01:00:02;45;44;
40947;PMS5003;49382;-25.924;28.194;2022-10-16T01:02:27;33;32;
40947;PMS5003;49382;-25.924;28.194;2022-10-16T01:04:52;30;30;
40947;PMS5003;49382;-25.924;28.194;2022-10-16T01:07:22;30;30;
40947;PMS5003;49382;-25.924;28.194;2022-10-16T01:09:47;37;37;
40947;PMS5003;49382;-25.924;28.194;2022-10-16T01:12:10;28;28;
40947;PMS5003;49382;-25.924;28.194;2022-10-16T01:14:36;28;27;
40947;PMS5003;49382;-25.924;28.194;2022-10-16T01:17:02;36;35;
40947;PMS5003;49382;-25.924;28.194;2022-10-16T01:19:30;31;29;
40947;PMS5003;49382;-25.924;28.194;2022-10-16T01:21:50;29;28;
40947;PMS5003;49382;-25.924;28.194;2022-10-16T01:24:17;38;38;
40947;PMS5003;49382;-25.924;28.194;2022-10-16T01:26:46;25;24;
40947;PMS5003;49382;-25.924;28.194;2022-10-16T01:29:06;26;26;
40947;PMS5003;49382;-25.924;28.194;2022-10-16T01:31:31;25;25;
40947;PMS5003;49382;-25.924;28.194;2022-10-16T01:33:58;22;22;
40947;PMS5003;49382;-25.924;28.194;2022-10-16T01:36:23;26;26;
40947;PMS5003;49382;-25.924;28.194;2022-10-16T01:38:47;24;23;
40947;PMS5003;49382;-25.924;28.194;2022-10-16T01:41:14;24;24;
40947;PMS5003;49382;-25.924;28.194;2022-10-16T01:43:38;23;23;
40947;PMS5003;49382;-25.924;28.194;2022-10-16T01:46:03;25;25;
40947;PMS5003;49382;-25.924;28.194;2022-10-16T01:48:29;24;24;
40947;PMS5003;49382;-25.924;28.194;2022-10-16T01:50:56;29;29;
40947;PMS5003;49382;-25.924;28.194;2022-10-16T01:53:21;26;24;
40947;PMS5003;49382;-25.924;28.194;2022-10-16T01:55:46;22;22;
40947;PMS5003;49382;-25.924;28.194;2022-10-16T01:58:12;24;23;
40947;PMS5003;49382;-25.924;28.194;2022-10-16T02:00:37;27;25;
40947;PMS5003;49382;-25.924;28.194;2022-10-16T02:03:02;24;24;
40947;PMS5003;49382;-25.924;28.194;2022-10-16T02:05:29;23;23;
40947;PMS5003;49382;-25.924;28.194;2022-10-16T02:07:53;22;21;
40947;PMS5003;49382;-25.924;28.194;2022-10-16T02:10:19;25;25;
40947;PMS5003;49382;-25.924;28.194;2022-10-16T02:12:45;26;26;
40947;PMS5003;49382;-25.924;28.194;2022-10-16T02:15:10;22;22;
40947;PMS5003;49382;-25.924;28.194;2022-10-16T02:17:36;20;20;
40947;PMS5003;49382;-25.924;28.194;2022-10-16T02:20:01;26;26;
40947;PMS5003;49382;-25.924;28.194;2022-10-16T02:22:28;24;24;
40947;PMS5003;49382;-25.924;28.194;2022-10-16T02:24:53;26;26;
40947;PMS5003;49382;-25.924;28.194;2022-10-16T02:27:17;24;24;
40947;PMS5003;49382;-25.924;28.194;2022-10-16T02:29:43;28;28;
40947;PMS5003;49382;-25.924;28.194;2022-10-16T02:32:08;22;22;
40947;PMS5003;49382;-25.924;28.194;2022-10-16T02:34:33;25;25;
40947;PMS5003;49382;-25.924;28.194;2022-10-16T02:36:58;29;28;
40947;PMS5003;49382;-25.924;28.194;2022-10-16T02:39:23;27;26;
40947;PMS5003;49382;-25.924;28.194;2022-10-16T02:41:49;25;25;
40947;PMS5003;49382;-25.924;28.194;2022-10-16T02:44:14;30;29;
40947;PMS5003;49382;-25.924;28.194;2022-10-16T02:46:39;23;23;
40947;PMS5003;49382;-25.924;28.194;2022-10-16T02:49:05;27;27;
40947;PMS5003;49382;-25.924;28.194;2022-10-16T02:51:30;29;29;
40947;PMS5003;49382;-25.924;28.194;2022-10-16T02:53:56;32;29;
40947;PMS5003;49382;-25.924;28.194;2022-10-16T02:56:20;27;27;
40947;PMS5003;49382;-25.924;28.194;2022-10-16T02:58:46;27;27;
40947;PMS5003;49382;-25.924;28.194;2022-10-16T03:01:11;27;27;
40947;PMS5003;49382;-25.924;28.194;2022-10-16T03:03:36;31;30;
40947;PMS5003;49382;-25.924;28.194;2022-10-16T03:06:01;27;26;
40947;PMS5003;49382;-25.924;28.194;2022-10-16T03:08:27;28;27;
40947;PMS5003;49382;-25.924;28.194;2022-10-16T03:10:52;25;25;
40947;PMS5003;49382;-25.924;28.194;2022-10-16T03:13:17;23;23;
40947;PMS5003;49382;-25.924;28.194;2022-10-16T03:15:43;24;23;
40947;PMS5003;49382;-25.924;28.194;2022-10-16T03:18:08;27;27;
40947;PMS5003;49382;-25.924;28.194;2022-10-16T03:20:34;26;26;
40947;PMS5003;49382;-25.924;28.194;2022-10-16T03:22:59;22;21;
40947;PMS5003;49382;-25.924;28.194;2022-10-16T03:25:25;24;22;
40947;PMS5003;49382;-25.924;28.194;2022-10-16T03:27:50;23;23;
40947;PMS5003;49382;-25.924;28.194;2022-10-16T03:30:15;22;22;
40947;PMS5003;49382;-25.924;28.194;2022-10-16T03:32:40;23;23;
40947;PMS5003;49382;-25.924;28.194;2022-10-16T03:35:05;21;20;
40947;PMS5003;49382;-25.924;28.194;2022-10-16T03:37:31;19;18;
40947;PMS5003;49382;-25.924;28.194;2022-10-16T03:39:56;22;22;
40947;PMS5003;49382;-25.924;28.194;2022-10-16T03:42:22;19;19;
40947;PMS5003;49382;-25.924;28.194;2022-10-16T03:44:47;22;21;
40947;PMS5003;49382;-25.924;28.194;2022-10-16T03:47:12;22;21;
40947;PMS5003;49382;-25.924;28.194;2022-10-16T03:49:38;24;23;
40947;PMS5003;49382;-25.924;28.194;2022-10-16T03:52:03;21;20;
40947;PMS5003;49382;-25.924;28.194;2022-10-16T03:54:28;26;25;
40947;PMS5003;49382;-25.924;28.194;2022-10-16T03:56:53;21;21;
40947;PMS5003;49382;-25.924;28.194;2022-10-16T03:59:18;21;20;
40947;PMS5003;49382;-25.924;28.194;2022-10-16T04:01:44;20;20;
40947;PMS5003;49382;-25.924;28.194;2022-10-16T04:04:09;21;20;
40947;PMS5003;49382;-25.924;28.194;2022-10-16T04:06:35;21;21;
40947;PMS5003;49382;-25.924;28.194;2022-10-16T04:09:00;19;19;
40947;PMS5003;49382;-25.924;28.194;2022-10-16T04:11:25;23;23;
40947;PMS5003;49382;-25.924;28.194;2022-10-16T04:13:50;23;21;
40947;PMS5003;49382;-25.924;28.194;2022-10-16T04:16:16;22;22;
40947;PMS5003;49382;-25.924;28.194;2022-10-16T04:18:42;23;23;
40947;PMS5003;49382;-25.924;28.194;2022-10-16T04:21:07;29;29;
40947;PMS5003;49382;-25.924;28.194;2022-10-16T04:23:32;21;21;
40947;PMS5003;49382;-25.924;28.194;2022-10-16T04:25:57;30;27;
40947;PMS5003;49382;-25.924;28.194;2022-10-16T04:28:23;24;24;
40947;PMS5003;49382;-25.924;28.194;2022-10-16T04:30:48;24;24;
40947;PMS5003;49382;-25.924;28.194;2022-10-16T04:33:13;26;26;
40947;PMS5003;49382;-25.924;28.194;2022-10-16T04:35:39;31;30;
40947;PMS5003;49382;-25.924;28.194;2022-10-16T04:38:05;31;30;
40947;PMS5003;49382;-25.924;28.194;2022-10-16T04:40:30;35;35;
40947;PMS5003;49382;-25.924;28.194;2022-10-16T04:42:56;32;32;
40947;PMS5003;49382;-25.924;28.194;2022-10-16T04:45:21;30;30;
40947;PMS5003;49382;-25.924;28.194;2022-10-16T04:47:46;28;28;
40947;PMS5003;49382;-25.924;28.194;2022-10-16T04:50:12;27;27;
40947;PMS5003;49382;-25.924;28.194;2022-10-16T04:52:37;29;29;
40947;PMS5003;49382;-25.924;28.194;2022-10-16T04:55:02;25;25;
40947;PMS5003;49382;-25.924;28.194;2022-10-16T04:57:27;38;37;
40947;PMS5003;49382;-25.924;28.194;2022-10-16T04:59:52;42;40;
40947;PMS5003;49382;-25.924;28.194;2022-10-16T05:02:18;30;29;
40947;PMS5003;49382;-25.924;28.194;2022-10-16T05:04:43;31;30;
40947;PMS5003;49382;-25.924;28.194;2022-10-16T05:07:09;33;33;
40947;PMS5003;49382;-25.924;28.194;2022-10-16T05:09:35;35;34;
40947;PMS5003;49382;-25.924;28.194;2022-10-16T05:12:00;33;32;
40947;PMS5003;49382;-25.924;28.194;2022-10-16T05:14:25;30;29;
40947;PMS5003;49382;-25.924;28.194;2022-10-16T05:16:50;35;34;
40947;PMS5003;49382;-25.924;28.194;2022-10-16T05:19:15;31;31;
40947;PMS5003;49382;-25.924;28.194;2022-10-16T05:21:41;35;33;
40947;PMS5003;49382;-25.924;28.194;2022-10-16T05:24:06;33;33;
40947;PMS5003;49382;-25.924;28.194;2022-10-16T05:26:31;31;31;
40947;PMS5003;49382;-25.924;28.194;2022-10-16T05:28:57;34;34;
40947;PMS5003;49382;-25.924;28.194;2022-10-16T05:31:22;28;28;
40947;PMS5003;49382;-25.924;28.194;2022-10-16T05:33:47;39;38;
40947;PMS5003;49382;-25.924;28.194;2022-10-16T05:36:13;34;34;
40947;PMS5003;49382;-25.924;28.194;2022-10-16T05:38:39;30;30;
40947;PMS5003;49382;-25.924;28.194;2022-10-16T05:41:05;29;29;
40947;PMS5003;49382;-25.924;28.194;2022-10-16T05:43:30;28;27;
40947;PMS5003;49382;-25.924;28.194;2022-10-16T05:45:55;30;29;
40947;PMS5003;49382;-25.924;28.194;2022-10-16T05:48:20;31;31;
40947;PMS5003;49382;-25.924;28.194;2022-10-16T05:50:46;30;29;
40947;PMS5003;49382;-25.924;28.194;2022-10-16T05:53:12;28;28;
40947;PMS5003;49382;-25.924;28.194;2022-10-16T05:55:37;29;29;
40947;PMS5003;49382;-25.924;28.194;2022-10-16T05:58:03;27;27;
40947;PMS5003;49382;-25.924;28.194;2022-10-16T06:00:28;26;26;
40947;PMS5003;49382;-25.924;28.194;2022-10-16T06:02:53;29;29;
40947;PMS5003;49382;-25.924;28.194;2022-10-16T06:05:19;34;34;
40947;PMS5003;49382;-25.924;28.194;2022-10-16T06:07:44;28;27;
40947;PMS5003;49382;-25.924;28.194;2022-10-16T06:10:09;32;30;
40947;PMS5003;49382;-25.924;28.194;2022-10-16T06:12:35;33;33;
40947;PMS5003;49382;-25.924;28.194;2022-10-16T06:15:00;28;27;
40947;PMS5003;49382;-25.924;28.194;2022-10-16T06:17:25;31;30;
40947;PMS5003;49382;-25.924;28.194;2022-10-16T06:19:50;29;28;
40947;PMS5003;49382;-25.924;28.194;2022-10-16T06:22:16;34;33;
40947;PMS5003;49382;-25.924;28.194;2022-10-16T06:24:41;32;32;
40947;PMS5003;49382;-25.924;28.194;2022-10-16T06:27:06;26;26;
40947;PMS5003;49382;-25.924;28.194;2022-10-16T06:29:32;26;26;
40947;PMS5003;49382;-25.924;28.194;2022-10-16T06:31:57;24;24;
40947;PMS5003;49382;-25.924;28.194;2022-10-16T06:34:23;25;25;
40947;PMS5003;49382;-25.924;28.194;2022-10-16T06:36:48;24;24;
40947;PMS5003;49382;-25.924;28.194;2022-10-16T06:39:13;24;24;
40947;PMS5003;49382;-25.924;28.194;2022-10-16T06:41:38;24;23;
40947;PMS5003;49382;-25.924;28.194;2022-10-16T06:44:05;30;30;
40947;PMS5003;49382;-25.924;28.194;2022-10-16T06:46:29;24;24;
40947;PMS5003;49382;-25.924;28.194;2022-10-16T06:48:55;21;21;
40947;PMS5003;49382;-25.924;28.194;2022-10-16T06:51:20;23;23;
40947;PMS5003;49382;-25.924;28.194;2022-10-16T06:53:46;28;27;
40947;PMS5003;49382;-25.924;28.194;2022-10-16T06:56:11;23;23;
40947;PMS5003;49382;-25.924;28.194;2022-10-16T06:58:36;32;32;
40947;PMS5003;49382;-25.924;28.194;2022-10-16T07:01:01;21;20;
40947;PMS5003;49382;-25.924;28.194;2022-10-16T07:03:26;23;23;
40947;PMS5003;49382;-25.924;28.194;2022-10-16T07:05:52;19;19;
40947;PMS5003;49382;-25.924;28.194;2022-10-16T07:08:18;18;18;
40947;PMS5003;49382;-25.924;28.194;2022-10-16T07:10:43;16;16;
40947;PMS5003;49382;-25.924;28.194;2022-10-16T07:13:09;16;16;
40947;PMS5003;49382;-25.924;28.194;2022-10-16T07:15:35;17;16;
40947;PMS5003;49382;-25.924;28.194;2022-10-16T07:18:01;13;13;
40947;PMS5003;49382;-25.924;28.194;2022-10-16T07:20:26;15;15;
40947;PMS5003;49382;-25.924;28.194;2022-10-16T07:22:52;15;14;
40947;PMS5003;49382;-25.924;28.194;2022-10-16T07:25:18;14;14;
40947;PMS5003;49382;-25.924;28.194;2022-10-16T07:27:44;13;13;
40947;PMS5003;49382;-25.924;28.194;2022-10-16T07:30:10;15;15;
40947;PMS5003;49382;-25.924;28.194;2022-10-16T07:32:35;14;13;
40947;PMS5003;49382;-25.924;28.194;2022-10-16T07:35:01;14;14;
40947;PMS5003;49382;-25.924;28.194;2022-10-16T07:37:27;14;14;
40947;PMS5003;49382;-25.924;28.194;2022-10-16T07:39:53;12;12;
40947;PMS5003;49382;-25.924;28.194;2022-10-16T07:42:19;15;13;
40947;PMS5003;49382;-25.924;28.194;2022-10-16T07:44:45;12;12;
40947;PMS5003;49382;-25.924;28.194;2022-10-16T07:47:10;11;11;
40947;PMS5003;49382;-25.924;28.194;2022-10-16T07:49:36;12;11;
40947;PMS5003;49382;-25.924;28.194;2022-10-16T07:52:02;14;14;
40947;PMS5003;49382;-25.924;28.194;2022-10-16T07:54:28;12;12;
40947;PMS5003;49382;-25.924;28.194;2022-10-16T07:56:54;14;14;
40947;PMS5003;49382;-25.924;28.194;2022-10-16T07:59:20;15;15;
40947;PMS5003;49382;-25.924;28.194;2022-10-16T08:01:45;14;14;
40947;PMS5003;49382;-25.924;28.194;2022-10-16T08:04:11;13;12;
40947;PMS5003;49382;-25.924;28.194;2022-10-16T08:06:37;14;13;
40947;PMS5003;49382;-25.924;28.194;2022-10-16T08:09:03;11;11;
40947;PMS5003;49382;-25.924;28.194;2022-10-16T08:11:28;13;13;
40947;PMS5003;49382;-25.924;28.194;2022-10-16T08:13:54;14;13;
40947;PMS5003;49382;-25.924;28.194;2022-10-16T08:16:20;16;15;
40947;PMS5003;49382;-25.924;28.194;2022-10-16T08:18:45;28;28;
40947;PMS5003;49382;-25.924;28.194;2022-10-16T08:21:13;95;95;
40947;PMS5003;49382;-25.924;28.194;2022-10-16T08:23:36;22;21;
40947;PMS5003;49382;-25.924;28.194;2022-10-16T08:26:03;14;14;
40947;PMS5003;49382;-25.924;28.194;2022-10-16T08:28:27;16;16;
40947;PMS5003;49382;-25.924;28.194;2022-10-16T08:30:53;16;16;
40947;PMS5003;49382;-25.924;28.194;2022-10-16T08:33:18;14;14;
40947;PMS5003;49382;-25.924;28.194;2022-10-16T08:38:10;12;12;
40947;PMS5003;49382;-25.924;28.194;2022-10-16T08:40:36;14;14;
40947;PMS5003;49382;-25.924;28.194;2022-10-16T08:45:29;14;13;
40947;PMS5003;49382;-25.924;28.194;2022-10-16T08:47:54;15;15;
40947;PMS5003;49382;-25.924;28.194;2022-10-16T08:50:21;15;15;
40947;PMS5003;49382;-25.924;28.194;2022-10-16T08:52:43;14;14;
40947;PMS5003;49382;-25.924;28.194;2022-10-16T08:55:10;15;15;
40947;PMS5003;49382;-25.924;28.194;2022-10-16T08:57:35;15;15;
40947;PMS5003;49382;-25.924;28.194;2022-10-16T09:00:05;16;16;
40947;PMS5003;49382;-25.924;28.194;2022-10-16T09:02:28;16;15;
40947;PMS5003;49382;-25.924;28.194;2022-10-16T09:04:55;14;14;
40947;PMS5003;49382;-25.924;28.194;2022-10-16T09:07:19;20;19;
40947;PMS5003;49382;-25.924;28.194;2022-10-16T09:09:48;14;14;
40947;PMS5003;49382;-25.924;28.194;2022-10-16T09:12:11;14;13;
40947;PMS5003;49382;-25.924;28.194;2022-10-16T09:14:40;17;16;
40947;PMS5003;49382;-25.924;28.194;2022-10-16T09:17:01;16;15;
40947;PMS5003;49382;-25.924;28.194;2022-10-16T09:19:27;16;16;
40947;PMS5003;49382;-25.924;28.194;2022-10-16T09:21:52;12;12;
40947;PMS5003;49382;-25.924;28.194;2022-10-16T09:24:19;14;13;
40947;PMS5003;49382;-25.924;28.194;2022-10-16T09:26:44;14;14;
40947;PMS5003;49382;-25.924;28.194;2022-10-16T09:29:10;16;16;
40947;PMS5003;49382;-25.924;28.194;2022-10-16T09:31:36;14;13;
40947;PMS5003;49382;-25.924;28.194;2022-10-16T09:34:02;14;13;
40947;PMS5003;49382;-25.924;28.194;2022-10-16T09:36:27;14;14;
40947;PMS5003;49382;-25.924;28.194;2022-10-16T09:41:18;14;13;
40947;PMS5003;49382;-25.924;28.194;2022-10-16T09:43:46;14;14;
40947;PMS5003;49382;-25.924;28.194;2022-10-16T09:46:19;17;17;
40947;PMS5003;49382;-25.924;28.194;2022-10-16T09:48:36;14;14;
40947;PMS5003;49382;-25.924;28.194;2022-10-16T09:51:02;14;14;
40947;PMS5003;49382;-25.924;28.194;2022-10-16T09:53:35;14;14;
40947;PMS5003;49382;-25.924;28.194;2022-10-16T09:55:52;14;14;
40947;PMS5003;49382;-25.924;28.194;2022-10-16T09:58:20;12;12;
40947;PMS5003;49382;-25.924;28.194;2022-10-16T10:00:48;12;11;
40947;PMS5003;49382;-25.924;28.194;2022-10-16T10:03:10;13;13;
40947;PMS5003;49382;-25.924;28.194;2022-10-16T10:05:35;13;13;
40947;PMS5003;49382;-25.924;28.194;2022-10-16T10:08:02;12;12;
40947;PMS5003;49382;-25.924;28.194;2022-10-16T10:10:27;17;16;
40947;PMS5003;49382;-25.924;28.194;2022-10-16T10:12:53;18;17;
40947;PMS5003;49382;-25.924;28.194;2022-10-16T10:15:18;18;17;
40947;PMS5003;49382;-25.924;28.194;2022-10-16T10:17:45;13;13;
40947;PMS5003;49382;-25.924;28.194;2022-10-16T10:20:15;15;15;
40947;PMS5003;49382;-25.924;28.194;2022-10-16T10:22:40;17;16;
40947;PMS5003;49382;-25.924;28.194;2022-10-16T10:27:30;17;16;
40947;PMS5003;49382;-25.924;28.194;2022-10-16T10:29:53;19;19;
40947;PMS5003;49382;-25.924;28.194;2022-10-16T10:32:20;41;41;
40947;PMS5003;49382;-25.924;28.194;2022-10-16T10:34:47;25;25;
40947;PMS5003;49382;-25.924;28.194;2022-10-16T10:37:12;26;26;
40947;PMS5003;49382;-25.924;28.194;2022-10-16T10:39:35;25;25;
40947;PMS5003;49382;-25.924;28.194;2022-10-16T10:44:27;18;18;
40947;PMS5003;49382;-25.924;28.194;2022-10-16T10:46:51;27;27;
40947;PMS5003;49382;-25.924;28.194;2022-10-16T10:49:19;20;20;
40947;PMS5003;49382;-25.924;28.194;2022-10-16T10:51:44;27;27;
40947;PMS5003;49382;-25.924;28.194;2022-10-16T10:54:11;26;24;
40947;PMS5003;49382;-25.924;28.194;2022-10-16T10:56:40;32;31;
40947;PMS5003;49382;-25.924;28.194;2022-10-16T10:59:02;38;37;
40947;PMS5003;49382;-25.924;28.194;2022-10-16T11:01:26;17;16;
40947;PMS5003;49382;-25.924;28.194;2022-10-16T11:03:58;15;15;
40947;PMS5003;49382;-25.924;28.194;2022-10-16T11:06:16;40;40;
40947;PMS5003;49382;-25.924;28.194;2022-10-16T11:08:42;35;34;
40947;PMS5003;49382;-25.924;28.194;2022-10-16T11:11:08;19;19;
40947;PMS5003;49382;-25.924;28.194;2022-10-16T11:13:33;41;39;
40947;PMS5003;49382;-25.924;28.194;2022-10-16T11:15:58;43;43;
40947;PMS5003;49382;-25.924;28.194;2022-10-16T11:18:24;49;48;
40947;PMS5003;49382;-25.924;28.194;2022-10-16T11:20:49;38;37;
40947;PMS5003;49382;-25.924;28.194;2022-10-16T11:23:14;39;39;
40947;PMS5003;49382;-25.924;28.194;2022-10-16T11:25:38;50;50;
40947;PMS5003;49382;-25.924;28.194;2022-10-16T11:28:06;55;55;
40947;PMS5003;49382;-25.924;28.194;2022-10-16T11:30:30;44;44;
40947;PMS5003;49382;-25.924;28.194;2022-10-16T11:33:00;24;24;
40947;PMS5003;49382;-25.924;28.194;2022-10-16T11:35:21;38;37;
40947;PMS5003;49382;-25.924;28.194;2022-10-16T11:37:45;33;33;
40947;PMS5003;49382;-25.924;28.194;2022-10-16T11:40:16;18;18;
40947;PMS5003;49382;-25.924;28.194;2022-10-16T11:42:36;15;15;
40947;PMS5003;49382;-25.924;28.194;2022-10-16T11:45:03;31;31;
40947;PMS5003;49382;-25.924;28.194;2022-10-16T11:47:30;28;28;
40947;PMS5003;49382;-25.924;28.194;2022-10-16T11:49:55;16;16;
40947;PMS5003;49382;-25.924;28.194;2022-10-16T11:52:20;17;17;
40947;PMS5003;49382;-25.924;28.194;2022-10-16T11:54:45;12;12;
40947;PMS5003;49382;-25.924;28.194;2022-10-16T11:57:11;14;14;
40947;PMS5003;49382;-25.924;28.194;2022-10-16T11:59:37;15;14;
40947;PMS5003;49382;-25.924;28.194;2022-10-16T12:02:07;17;17;
40947;PMS5003;49382;-25.924;28.194;2022-10-16T12:04:28;18;17;
40947;PMS5003;49382;-25.924;28.194;2022-10-16T12:06:52;16;16;
40947;PMS5003;49382;-25.924;28.194;2022-10-16T12:09:19;17;17;
40947;PMS5003;49382;-25.924;28.194;2022-10-16T12:11:44;14;14;
40947;PMS5003;49382;-25.924;28.194;2022-10-16T12:16:36;15;15;
40947;PMS5003;49382;-25.924;28.194;2022-10-16T12:21:30;13;13;
40947;PMS5003;49382;-25.924;28.194;2022-10-16T12:23:53;18;17;
40947;PMS5003;49382;-25.924;28.194;2022-10-16T12:28:43;13;13;
40947;PMS5003;49382;-25.924;28.194;2022-10-16T12:31:09;15;15;
40947;PMS5003;49382;-25.924;28.194;2022-10-16T12:33:36;15;15;
40947;PMS5003;49382;-25.924;28.194;2022-10-16T12:36:02;14;14;
40947;PMS5003;49382;-25.924;28.194;2022-10-16T12:38:27;17;17;
40947;PMS5003;49382;-25.924;28.194;2022-10-16T12:40:57;18;17;
40947;PMS5003;49382;-25.924;28.194;2022-10-16T12:45:44;13;13;
40947;PMS5003;49382;-25.924;28.194;2022-10-16T12:50:36;16;15;
40947;PMS5003;49382;-25.924;28.194;2022-10-16T12:53:02;16;15;
40947;PMS5003;49382;-25.924;28.194;2022-10-16T12:55:30;15;15;
40947;PMS5003;49382;-25.924;28.194;2022-10-16T13:00:22;15;15;
40947;PMS5003;49382;-25.924;28.194;2022-10-16T13:05:14;15;15;
40947;PMS5003;49382;-25.924;28.194;2022-10-16T13:07:40;16;15;
40947;PMS5003;49382;-25.924;28.194;2022-10-16T13:10:05;25;25;
40947;PMS5003;49382;-25.924;28.194;2022-10-16T13:12:37;16;15;
40947;PMS5003;49382;-25.924;28.194;2022-10-16T13:14:57;17;16;
40947;PMS5003;49382;-25.924;28.194;2022-10-16T13:17:20;14;14;
40947;PMS5003;49382;-25.924;28.194;2022-10-16T13:19:45;14;14;
40947;PMS5003;49382;-25.924;28.194;2022-10-16T13:22:11;17;17;
40947;PMS5003;49382;-25.924;28.194;2022-10-16T13:24:40;15;15;
40947;PMS5003;49382;-25.924;28.194;2022-10-16T13:27:01;14;14;
40947;PMS5003;49382;-25.924;28.194;2022-10-16T13:29:29;13;13;
40947;PMS5003;49382;-25.924;28.194;2022-10-16T13:31:52;16;16;
40947;PMS5003;49382;-25.924;28.194;2022-10-16T13:34:19;15;15;
40947;PMS5003;49382;-25.924;28.194;2022-10-16T13:36:44;15;14;
40947;PMS5003;49382;-25.924;28.194;2022-10-16T13:39:11;13;13;
40947;PMS5003;49382;-25.924;28.194;2022-10-16T13:41:34;14;14;
40947;PMS5003;49382;-25.924;28.194;2022-10-16T13:44:00;14;14;
40947;PMS5003;49382;-25.924;28.194;2022-10-16T13:46:26;16;16;
40947;PMS5003;49382;-25.924;28.194;2022-10-16T13:51:18;16;15;
40947;PMS5003;49382;-25.924;28.194;2022-10-16T13:53:43;21;20;
40947;PMS5003;49382;-25.924;28.194;2022-10-16T13:56:11;15;15;
40947;PMS5003;49382;-25.924;28.194;2022-10-16T13:58:34;14;14;
40947;PMS5003;49382;-25.924;28.194;2022-10-16T14:01:01;16;16;
40947;PMS5003;49382;-25.924;28.194;2022-10-16T14:03:26;15;15;
40947;PMS5003;49382;-25.924;28.194;2022-10-16T14:05:52;15;15;
40947;PMS5003;49382;-25.924;28.194;2022-10-16T14:08:17;15;15;
40947;PMS5003;49382;-25.924;28.194;2022-10-16T14:10:47;14;14;
40947;PMS5003;49382;-25.924;28.194;2022-10-16T14:13:14;20;20;
40947;PMS5003;49382;-25.924;28.194;2022-10-16T14:15:35;15;15;
40947;PMS5003;49382;-25.924;28.194;2022-10-16T14:18:00;16;15;
40947;PMS5003;49382;-25.924;28.194;2022-10-16T14:20:27;23;22;
40947;PMS5003;49382;-25.924;28.194;2022-10-16T14:25:23;20;20;
40947;PMS5003;49382;-25.924;28.194;2022-10-16T14:27:43;16;15;
40947;PMS5003;49382;-25.924;28.194;2022-10-16T14:30:12;15;13;
40947;PMS5003;49382;-25.924;28.194;2022-10-16T14:32:35;15;15;
40947;PMS5003;49382;-25.924;28.194;2022-10-16T14:35:01;15;15;
40947;PMS5003;49382;-25.924;28.194;2022-10-16T14:37:27;16;14;
40947;PMS5003;49382;-25.924;28.194;2022-10-16T14:39:52;16;16;
40947;PMS5003;49382;-25.924;28.194;2022-10-16T14:42:18;15;15;
40947;PMS5003;49382;-25.924;28.194;2022-10-16T14:44:43;13;13;
40947;PMS5003;49382;-25.924;28.194;2022-10-16T14:47:09;14;14;
40947;PMS5003;49382;-25.924;28.194;2022-10-16T14:49:34;15;14;
40947;PMS5003;49382;-25.924;28.194;2022-10-16T14:52:00;13;13;
40947;PMS5003;49382;-25.924;28.194;2022-10-16T14:54:26;17;17;
40947;PMS5003;49382;-25.924;28.194;2022-10-16T14:56:53;13;13;
40947;PMS5003;49382;-25.924;28.194;2022-10-16T14:59:18;15;15;
40947;PMS5003;49382;-25.924;28.194;2022-10-16T15:01:42;14;14;
40947;PMS5003;49382;-25.924;28.194;2022-10-16T15:04:08;14;14;
40947;PMS5003;49382;-25.924;28.194;2022-10-16T15:06:33;13;13;
40947;PMS5003;49382;-25.924;28.194;2022-10-16T15:08:59;15;14;
40947;PMS5003;49382;-25.924;28.194;2022-10-16T15:11:25;12;12;
40947;PMS5003;49382;-25.924;28.194;2022-10-16T15:13:50;14;13;
40947;PMS5003;49382;-25.924;28.194;2022-10-16T15:16:16;15;14;
40947;PMS5003;49382;-25.924;28.194;2022-10-16T15:18:42;13;13;
40947;PMS5003;49382;-25.924;28.194;2022-10-16T15:21:23;14;14;
40947;PMS5003;49382;-25.924;28.194;2022-10-16T15:23:34;16;16;
40947;PMS5003;49382;-25.924;28.194;2022-10-16T15:25:59;16;14;
40947;PMS5003;49382;-25.924;28.194;2022-10-16T15:28:25;15;15;
40947;PMS5003;49382;-25.924;28.194;2022-10-16T15:30:52;17;17;
40947;PMS5003;49382;-25.924;28.194;2022-10-16T15:33:17;14;14;
40947;PMS5003;49382;-25.924;28.194;2022-10-16T15:35:42;20;20;
40947;PMS5003;49382;-25.924;28.194;2022-10-16T15:38:09;17;17;
40947;PMS5003;49382;-25.924;28.194;2022-10-16T15:40:33;16;15;
40947;PMS5003;49382;-25.924;28.194;2022-10-16T15:42:59;15;15;
40947;PMS5003;49382;-25.924;28.194;2022-10-16T15:45:25;20;20;
40947;PMS5003;49382;-25.924;28.194;2022-10-16T15:47:51;17;17;
40947;PMS5003;49382;-25.924;28.194;2022-10-16T15:50:16;16;15;
40947;PMS5003;49382;-25.924;28.194;2022-10-16T15:52:42;19;19;
40947;PMS5003;49382;-25.924;28.194;2022-10-16T15:55:08;28;26;
40947;PMS5003;49382;-25.924;28.194;2022-10-16T15:57:33;19;19;
40947;PMS5003;49382;-25.924;28.194;2022-10-16T15:59:58;29;28;
40947;PMS5003;49382;-25.924;28.194;2022-10-16T16:02:24;33;33;
40947;PMS5003;49382;-25.924;28.194;2022-10-16T16:04:49;37;37;
40947;PMS5003;49382;-25.924;28.194;2022-10-16T16:07:15;20;20;
40947;PMS5003;49382;-25.924;28.194;2022-10-16T16:09:40;69;69;